Latest Weather Observations for Urandangi

IDQ60801

Issued at 9:05 pm EST Friday 25 July 2014 (issued every 30 minutes, with the page automatically refreshed every 10 minutes)

About weather observations | Map of weather stations | Latest weather observations for QLD | Other Formats
Station Details ID: 037058 Name: URANDANGI AERODROME Lat: -21.60 Lon: 138.37 Height: 178.6 m
Data from the previous 72 hours. | See also: Recent months at Urandangi
Date/Time
EST
Temp
°C
App
Temp
°C
Dew
Point
Rel
Hum
%
Delta-T
°C
Wind Press
QNH
hPa
Press
MSL
hPa
Rain
since 9 am
mm
Dir
 
Spd
km/h
Gust
km/h
Spd
kts
Gust
kts
25/09:00pm 21.0 16.5 2.3 29 8.8 SSE 15 20 8 11 1021.3 1021.1 0.0
25/08:30pm 20.7 17.1 3.0 31 8.4 SSE 11 15 6 8 1021.0 - 0.0
25/08:00pm 21.0 17.4 3.2 31 8.5 SSE 11 13 6 7 1020.8 1020.6 0.0
25/07:30pm 22.3 18.4 3.4 29 9.2 SSE 13 15 7 8 1020.2 - 0.0
25/07:00pm 22.9 19.1 3.9 29 9.3 SSE 13 15 7 8 1019.8 1019.6 0.0
25/06:30pm 23.8 20.4 4.2 28 9.7 SSE 11 13 6 7 1019.2 - 0.0
25/06:00pm 25.8 21.8 4.9 26 10.6 SSE 15 19 8 10 1018.9 1018.7 0.0
25/05:30pm 27.0 23.1 5.3 25 11.2 S 15 20 8 11 1018.7 - 0.0
25/05:00pm 27.4 23.9 5.6 25 11.4 S 13 19 7 10 1018.5 1018.3 0.0
25/04:30pm 28.1 25.4 5.6 24 11.8 SW 9 15 5 8 1018.2 - 0.0
25/04:00pm 28.3 25.0 6.4 25 11.6 SSW 13 20 7 11 1018.2 1018.0 0.0
25/03:30pm 27.9 24.6 6.6 26 11.3 SW 13 22 7 12 1018.3 - 0.0
25/03:00pm 28.2 25.4 6.9 26 11.4 SSW 11 22 6 12 1018.3 1018.1 0.0
25/02:30pm 27.5 24.3 6.8 27 11.0 WSW 13 24 7 13 1018.6 - 0.0
25/02:00pm 26.7 23.4 6.2 27 10.7 SW 13 24 7 13 1018.9 1018.7 0.0
25/01:30pm 26.4 23.4 5.9 27 10.7 SW 11 22 6 12 1019.2 - 0.0
25/01:00pm 26.3 22.6 6.4 28 10.4 SW 15 24 8 13 1019.6 1019.4 0.0
25/12:30pm 25.5 22.1 5.7 28 10.2 SW 13 22 7 12 1020.1 - 0.0
25/12:00pm 24.8 21.5 4.5 27 10.2 SW 11 19 6 10 1020.4 1020.2 0.0
25/11:30am 23.8 20.4 5.7 31 9.3 WSW 13 19 7 10 1020.6 - 0.0
25/11:00am 22.9 20.2 5.8 33 8.7 WSW 9 17 5 9 1020.8 1020.6 0.0
25/10:30am 21.7 19.2 1.4 26 9.4 SW 4 9 2 5 1021.1 - 0.0
25/10:00am 19.4 15.6 -5.5 18 9.8 S 6 9 3 5 1021.0 1020.8 0.0
25/09:30am 17.3 13.7 -7.2 18 9.2 E 4 7 2 4 1020.7 - 0.0
25/09:00am 15.2 11.0 -7.6 20 8.2 SSE 7 11 4 6 1020.3 1020.1 -
25/08:30am 12.8 9.5 -8.4 22 7.3 N 2 6 1 3 1019.9 - -
25/08:00am 9.7 6.7 -8.8 26 6.1 CALM 0 0 0 0 1019.4 1019.2 -
25/07:30am 7.0 3.9 -10.2 28 5.3 CALM 0 0 0 0 1019.3 - -
25/07:00am 8.0 4.6 -9.8 27 5.6 N 2 2 1 1 1018.9 1018.7 -
25/06:30am 7.3 4.2 -10.4 27 5.4 CALM 0 0 0 0 1018.6 - -
25/06:00am 7.8 4.4 -10.0 27 5.5 N 2 6 1 3 1018.5 1018.3 -
25/05:30am 7.8 4.7 -10.0 27 5.5 CALM 0 4 0 2 1018.2 - -
25/05:00am 8.1 5.1 -9.7 27 5.6 CALM 0 4 0 2 1018.0 1017.8 -
25/04:30am 9.4 5.6 -10.1 24 6.2 N 4 7 2 4 1018.0 - -
25/04:00am 9.8 6.8 -9.8 24 6.3 CALM 0 4 0 2 1017.7 1017.6 -
25/03:30am 10.6 6.9 -9.1 24 6.5 - 4 4 2 2 1017.4 - -
25/01:30am 15.7 10.4 -7.2 20 8.4 ENE 13 15 7 8 1016.7 - -
25/01:00am 13.3 8.7 -8.5 21 7.5 E 9 9 5 5 1016.7 1016.5 -
25/12:00am 12.7 8.6 -8.4 22 7.3 ESE 6 7 3 4 1016.7 1016.5 0.0
 
Date/Time
EST
Temp
°C
App
Temp
°C
Dew
Point
Rel
Hum
%
Delta-T
°C
Wind Press
QNH
hPa
Press
MSL
hPa
Rain
since 9 am
mm
Dir
 
Spd
km/h
Gust
km/h
Spd
kts
Gust
kts
24/11:30pm 12.5 8.4 -9.2 21 7.3 E 6 6 3 3 1016.9 - 0.0
24/11:00pm 15.4 10.8 -8.1 19 8.4 E 9 9 5 5 1016.7 1016.5 0.0
24/10:30pm 15.1 10.5 -8.3 19 8.3 E 9 9 5 5 1016.6 - 0.0
24/10:00pm 16.1 11.5 -8.2 18 8.8 E 9 11 5 6 1016.4 1016.2 0.0
24/09:30pm 15.9 11.3 -7.7 19 8.6 ESE 9 11 5 6 1016.3 - 0.0
24/09:00pm 16.0 11.3 -9.0 17 8.9 ESE 9 9 5 5 1016.1 1015.9 0.0
24/08:30pm 18.0 13.8 -8.2 16 9.7 SSW 7 7 4 4 1016.0 - 0.0
24/08:00pm 18.9 14.7 -7.4 16 10.0 SSW 7 7 4 4 1015.7 1015.5 0.0
24/07:30pm 19.9 15.7 -7.5 15 10.5 SSW 7 7 4 4 1015.3 - 0.0
24/07:00pm 22.0 17.8 -7.6 13 11.6 SSW 7 9 4 5 1015.0 1014.8 0.0
24/06:30pm 24.5 20.3 -7.9 11 12.9 SW 7 9 4 5 1014.7 - 0.0
24/06:00pm 27.1 23.0 -8.5 9 14.4 SW 6 7 3 4 1014.4 1014.2 0.0
24/05:30pm 28.2 24.0 -7.6 9 14.9 SW 7 9 4 5 1014.1 - 0.0
24/05:00pm 28.7 24.4 -8.8 8 15.3 WSW 7 13 4 7 1014.0 1013.8 0.0
24/04:30pm 28.9 23.9 -8.6 8 15.4 W 11 17 6 9 1013.9 - 0.0
24/04:00pm 29.3 24.7 -8.3 8 15.6 W 9 19 5 10 1013.8 1013.6 0.0
24/03:30pm 29.2 24.7 -6.9 9 15.3 SW 9 19 5 10 1013.8 - 0.0
24/03:00pm 29.4 24.8 -8.2 8 15.6 SW 9 15 5 8 1014.0 1013.8 0.0
24/02:30pm 29.1 23.7 -8.5 8 15.5 W 13 22 7 12 1014.2 - 0.0
24/02:00pm 28.6 23.2 -8.8 8 15.2 WSW 13 19 7 10 1014.5 1014.3 0.0
24/01:30pm 28.8 23.0 -8.7 8 15.3 WNW 15 22 8 12 1015.0 - 0.0
24/01:00pm 28.6 22.9 -7.3 9 15.0 WNW 15 20 8 11 1015.5 1015.3 0.0
24/12:30pm 27.9 22.3 -6.5 10 14.5 NW 15 22 8 12 1016.0 - 0.0
24/12:00pm 27.5 21.6 -5.6 11 14.1 N 17 22 9 12 1016.3 1016.1 0.0
24/11:30am 27.1 21.8 -7.1 10 14.2 N 13 19 7 10 1016.6 - 0.0
24/11:00am 24.8 19.4 -8.8 10 13.2 NNW 13 19 7 10 1016.8 1016.6 0.0
24/10:30am 23.0 17.6 -7.9 12 12.1 N 13 19 7 10 1016.8 - 0.0
24/10:00am 20.8 15.4 -8.6 13 11.1 N 13 19 7 10 1016.7 1016.5 0.0
24/09:30am 19.3 14.2 -8.8 14 10.4 N 11 13 6 7 1016.6 - 0.0
24/09:00am 17.7 13.0 -9.2 15 9.7 N 9 13 5 7 1016.3 1016.1 0.0
24/08:30am 14.5 9.8 -8.8 19 8.2 N 9 11 5 6 1015.9 - 0.0
24/08:00am 11.8 6.7 -9.2 22 7.0 N 11 13 6 7 1015.6 1015.4 0.0
24/07:30am 7.4 2.6 -9.9 28 5.4 N 9 17 5 9 1015.4 - 0.0
24/07:00am 6.8 2.3 -11.3 26 5.4 NNW 7 9 4 5 1015.1 1014.9 0.0
24/06:30am 6.7 2.4 -11.4 26 5.3 NNW 6 6 3 3 1014.7 - 0.0
24/06:00am 6.6 3.1 -11.5 26 5.3 NE 2 7 1 4 1014.5 1014.3 0.0
24/05:30am 6.4 3.2 -11.7 26 5.3 CALM 0 0 0 0 1014.1 - 0.0
24/05:00am 6.6 2.6 -12.0 25 5.4 NE 4 4 2 2 1014.0 1013.8 0.0
24/04:30am 7.1 3.5 -12.1 24 5.6 NE 2 4 1 2 1013.9 - 0.0
24/04:00am 8.2 3.9 -11.1 24 5.9 NE 6 6 3 3 1014.0 1013.8 0.0
24/03:30am 8.5 4.6 -10.9 24 6.0 ENE 4 4 2 2 1014.1 - 0.0
24/03:00am 10.2 5.9 -11.1 21 6.7 ENE 6 7 3 4 1014.2 1014.0 0.0
24/02:30am 11.0 5.9 -9.9 22 6.8 ENE 11 15 6 8 1014.3 - 0.0
24/02:00am 9.6 4.7 -12.2 20 6.6 ENE 9 9 5 5 1014.5 1014.3 0.0
24/01:30am 9.1 4.7 -13.3 19 6.6 ENE 6 7 3 4 1014.7 - 0.0
24/01:00am 12.8 8.4 -10.2 19 7.6 ENE 7 7 4 4 1014.8 1014.6 0.0
24/12:30am 12.2 6.6 -10.7 19 7.5 ENE 13 15 7 8 1014.9 - 0.0
24/12:00am 12.5 8.1 -9.8 20 7.4 E 7 7 4 4 1015.0 1014.8 0.0
 
Date/Time
EST
Temp
°C
App
Temp
°C
Dew
Point
Rel
Hum
%
Delta-T
°C
Wind Press
QNH
hPa
Press
MSL
hPa
Rain
since 9 am
mm
Dir
 
Spd
km/h
Gust
km/h
Spd
kts
Gust
kts
23/11:30pm 11.4 6.9 -11.4 19 7.2 NNW 7 9 4 5 1015.1 - 0.0
23/11:00pm 11.1 6.8 -11.6 19 7.1 NNW 6 7 3 4 1015.2 1015.0 0.0
23/10:30pm 10.8 7.7 -11.2 20 6.9 CALM 0 2 0 1 1015.3 - 0.0
23/10:00pm 10.7 7.4 -13.3 17 7.2 CALM 0 0 0 0 1015.3 1015.1 0.0
23/09:30pm 12.5 9.3 -11.9 17 7.8 CALM 0 0 0 0 1015.3 - 0.0
23/09:00pm 13.1 9.9 -12.1 16 8.0 CALM 0 0 0 0 1015.3 1015.1 0.0
23/08:30pm 14.4 10.5 -11.9 15 8.6 NNW 4 4 2 2 1014.9 - 0.0
23/08:00pm 16.4 12.1 -11.1 14 9.4 NNW 6 7 3 4 1014.6 1014.4 0.0
23/07:30pm 17.5 14.4 -11.2 13 9.9 CALM 0 0 0 0 1014.4 - 0.0
23/07:00pm 19.7 16.5 -11.5 11 11.0 CALM 0 0 0 0 1014.2 1014.0 0.0
23/06:30pm 24.1 21.0 -10.7 9 13.1 CALM 0 2 0 1 1014.0 - 0.0
23/06:00pm 27.1 23.6 -11.6 7 14.8 WNW 2 4 1 2 1013.9 1013.7 0.0
23/05:30pm 27.8 23.5 -11.1 7 15.1 WSW 6 7 3 4 1013.8 - 0.0
23/05:00pm 28.0 23.7 -11.0 7 15.2 NW 6 13 3 7 1013.7 1013.5 0.0
23/04:30pm 28.5 24.1 -10.6 7 15.4 WNW 7 17 4 9 1013.5 - 0.0
23/04:00pm 28.3 23.5 -10.7 7 15.3 WNW 9 17 5 9 1013.5 1013.3 0.0
23/03:30pm 28.2 23.4 -10.8 7 15.3 WNW 9 19 5 10 1013.8 - 0.0
23/03:00pm 28.0 22.4 -11.0 7 15.2 WNW 13 20 7 11 1013.9 1013.7 0.0
23/02:30pm 27.8 22.7 -9.4 8 14.9 WNW 11 17 6 9 1014.3 - 0.0
23/02:00pm 27.0 21.9 -10.0 8 14.5 NW 11 19 6 10 1014.8 1014.6 0.0
23/01:30pm 27.9 22.8 -9.4 8 15.0 WNW 11 17 6 9 1015.1 - 0.0
23/01:00pm 26.6 22.2 -10.3 8 14.4 WNW 7 13 4 7 1015.6 1015.4 0.0
23/12:30pm 27.2 22.4 -9.9 8 14.6 N 9 17 5 9 1016.3 - 0.0
23/12:00pm 25.9 21.6 -10.8 8 14.0 N 6 13 3 7 1016.9 1016.7 0.0
23/11:30am 24.7 19.9 -10.3 9 13.4 N 9 13 5 7 1017.1 - 0.0
23/11:00am 23.6 19.2 -9.8 10 12.7 NNE 7 11 4 6 1017.5 1017.4 0.0
23/10:30am 22.2 18.4 -9.6 11 12.0 NE 4 6 2 3 1017.9 - 0.0
23/10:00am 19.0 16.0 -9.1 14 10.3 CALM 0 0 0 0 1018.3 1018.1 0.0
23/09:30am 16.6 13.6 -9.3 16 9.2 CALM 0 0 0 0 1018.3 - 0.0
23/09:00am 12.9 9.1 -9.5 20 7.5 SW 4 4 2 2 1018.4 1018.2 0.0
23/08:30am 9.3 6.3 -9.2 26 6.0 CALM 0 0 0 0 1018.2 - 0.0
23/08:00am 5.5 2.0 -11.5 28 4.9 NNE 2 4 1 2 1018.1 1017.9 0.0
23/07:30am 4.8 0.0 -10.9 31 4.6 E 9 9 5 5 1017.6 - 0.0
23/07:00am 3.6 0.0 -12.7 29 4.7 SE 2 2 1 1 1017.9 1017.7 0.0
23/06:30am 3.3 -0.6 -11.8 32 4.4 SE 4 4 2 2 1017.6 - 0.0
23/06:00am 3.8 0.2 -13.0 28 4.8 SE 2 4 1 2 1017.2 1017.1 0.0
23/05:30am 6.1 2.2 -10.6 29 5.0 SE 4 4 2 2 1017.0 - 0.0
23/05:00am 6.2 1.9 -10.9 28 5.1 SE 6 6 3 3 1017.0 1016.8 0.0
23/04:30am 6.3 2.0 -11.3 27 5.2 SE 6 7 3 4 1017.0 - 0.0
23/04:00am 5.8 1.5 -12.2 26 5.1 SE 6 7 3 4 1017.1 1016.9 0.0
23/03:30am 7.3 3.0 -10.9 26 5.5 SE 6 7 3 4 1017.0 - 0.0
23/03:00am 7.3 3.0 -11.4 25 5.6 SE 6 6 3 3 1017.1 1016.9 0.0
23/02:30am 7.8 3.9 -11.5 24 5.8 SE 4 4 2 2 1017.3 - 0.0
23/02:00am 7.8 3.5 -11.5 24 5.8 SE 6 6 3 3 1017.4 1017.3 0.0
23/01:30am 8.4 4.1 -11.5 23 6.0 SE 6 7 3 4 1017.5 - 0.0
23/01:00am 9.5 5.2 -11.1 22 6.4 SE 6 7 3 4 1017.6 1017.5 0.0
23/12:30am 9.9 5.4 -11.4 21 6.6 SE 7 7 4 4 1017.6 - 0.0
23/12:00am 10.2 5.9 -11.1 21 6.7 SSE 6 7 3 4 1017.9 1017.7 0.0
 
Date/Time
EST
Temp
°C
App
Temp
°C
Dew
Point
Rel
Hum
%
Delta-T
°C
Wind Press
QNH
hPa
Press
MSL
hPa
Rain
since 9 am
mm
Dir
 
Spd
km/h
Gust
km/h
Spd
kts
Gust
kts
22/11:30pm 10.4 6.1 -11.6 20 6.8 SSE 6 6 3 3 1018.0 - 0.0
22/11:00pm 10.9 6.7 -10.5 21 6.9 S 6 7 3 4 1018.0 1017.8 0.0
22/10:30pm 11.0 6.5 -11.1 20 7.0 SE 7 9 4 5 1017.9 - 0.0
22/10:00pm 12.0 7.7 -10.9 19 7.4 SE 6 7 3 4 1017.5 1017.4 0.0
22/09:30pm 13.2 8.9 -11.3 17 8.0 SE 6 7 3 4 1017.4 - 0.0

Other Formats:

Comma delimited format used in spreadsheet applications
http://www.bom.gov.au/fwo/IDQ60801/IDQ60801.94344.axf

JavaScript Object Notation format (JSON) in row-major order
http://www.bom.gov.au/fwo/IDQ60801/IDQ60801.94344.json